sensor_id;sensor_type;location;lat;lon;timestamp;pressure;altitude;pressure_sealevel;temperature;humidity
43818;BME280;29868;47.360;18.984;2023-04-09T00:02:21;100981.50;;;3.66;100.00
43818;BME280;29868;47.360;18.984;2023-04-09T00:04:47;100977.34;;;3.69;100.00
43818;BME280;29868;47.360;18.984;2023-04-09T00:07:12;100987.59;;;3.85;100.00
43818;BME280;29868;47.360;18.984;2023-04-09T00:09:37;100977.97;;;3.81;100.00
43818;BME280;29868;47.360;18.984;2023-04-09T00:12:03;100980.47;;;3.79;100.00
43818;BME280;29868;47.360;18.984;2023-04-09T00:14:28;100979.25;;;3.73;100.00
43818;BME280;29868;47.360;18.984;2023-04-09T00:16:54;100980.31;;;3.76;100.00
43818;BME280;29868;47.360;18.984;2023-04-09T00:19:20;100986.78;;;3.86;100.00
43818;BME280;29868;47.360;18.984;2023-04-09T00:21:45;100977.72;;;3.93;100.00
43818;BME280;29868;47.360;18.984;2023-04-09T00:24:12;100982.00;;;3.92;100.00
43818;BME280;29868;47.360;18.984;2023-04-09T00:26:37;100976.03;;;3.93;100.00
43818;BME280;29868;47.360;18.984;2023-04-09T00:29:03;100976.03;;;3.93;100.00
43818;BME280;29868;47.360;18.984;2023-04-09T00:31:28;100976.91;;;3.94;100.00
43818;BME280;29868;47.360;18.984;2023-04-09T00:33:54;100977.47;;;4.04;100.00
43818;BME280;29868;47.360;18.984;2023-04-09T00:36:20;100974.13;;;4.05;100.00
43818;BME280;29868;47.360;18.984;2023-04-09T00:38:45;100969.59;;;4.01;100.00
43818;BME280;29868;47.360;18.984;2023-04-09T00:41:12;100977.00;;;3.95;100.00
43818;BME280;29868;47.360;18.984;2023-04-09T00:43:38;100974.69;;;4.00;100.00
43818;BME280;29868;47.360;18.984;2023-04-09T00:46:03;100969.94;;;3.91;100.00
43818;BME280;29868;47.360;18.984;2023-04-09T00:48:30;100964.81;;;3.91;100.00
43818;BME280;29868;47.360;18.984;2023-04-09T00:50:55;100970.34;;;3.82;100.00
43818;BME280;29868;47.360;18.984;2023-04-09T00:53:21;100964.97;;;3.94;100.00
43818;BME280;29868;47.360;18.984;2023-04-09T00:55:46;100970.59;;;3.87;100.00
43818;BME280;29868;47.360;18.984;2023-04-09T00:58:12;100966.78;;;3.97;100.00
43818;BME280;29868;47.360;18.984;2023-04-09T01:00:38;100971.38;;;4.02;100.00
43818;BME280;29868;47.360;18.984;2023-04-09T01:03:04;100965.09;;;3.97;100.00
43818;BME280;29868;47.360;18.984;2023-04-09T01:05:45;100967.03;;;4.01;100.00
43818;BME280;29868;47.360;18.984;2023-04-09T01:11:23;100970.50;;;4.02;100.00
43818;BME280;29868;47.360;18.984;2023-04-09T01:16:23;100973.22;;;4.05;100.00
43818;BME280;29868;47.360;18.984;2023-04-09T01:19:02;100968.00;;;4.03;100.00
43818;BME280;29868;47.360;18.984;2023-04-09T01:21:34;100973.53;;;4.11;100.00
43818;BME280;29868;47.360;18.984;2023-04-09T01:24:51;100970.91;;;4.09;100.00
43818;BME280;29868;47.360;18.984;2023-04-09T01:27:21;100974.75;;;4.18;100.00
43818;BME280;29868;47.360;18.984;2023-04-09T01:29:50;100973.78;;;4.15;100.00
43818;BME280;29868;47.360;18.984;2023-04-09T01:32:18;100973.28;;;4.23;100.00
43818;BME280;29868;47.360;18.984;2023-04-09T01:34:45;100971.38;;;4.19;100.00
43818;BME280;29868;47.360;18.984;2023-04-09T01:37:12;100973.94;;;4.19;100.00
43818;BME280;29868;47.360;18.984;2023-04-09T01:39:39;100979.88;;;4.18;100.00
43818;BME280;29868;47.360;18.984;2023-04-09T01:42:05;100977.38;;;4.19;100.00
43818;BME280;29868;47.360;18.984;2023-04-09T01:44:37;100978.09;;;4.17;100.00
43818;BME280;29868;47.360;18.984;2023-04-09T01:47:03;100977.31;;;4.18;100.00
43818;BME280;29868;47.360;18.984;2023-04-09T01:49:29;100974.75;;;4.18;100.00
43818;BME280;29868;47.360;18.984;2023-04-09T01:51:55;100981.47;;;4.15;100.00
43818;BME280;29868;47.360;18.984;2023-04-09T01:54:20;100979.88;;;4.18;100.00
43818;BME280;29868;47.360;18.984;2023-04-09T01:56:47;100973.28;;;4.23;100.00
43818;BME280;29868;47.360;18.984;2023-04-09T01:59:13;100976.56;;;4.20;100.00
43818;BME280;29868;47.360;18.984;2023-04-09T02:01:44;100967.75;;;4.15;100.00
43818;BME280;29868;47.360;18.984;2023-04-09T02:04:16;100980.84;;;4.20;100.00
43818;BME280;29868;47.360;18.984;2023-04-09T02:07:05;100974.75;;;4.18;100.00
43818;BME280;29868;47.360;18.984;2023-04-09T02:09:35;100978.25;;;4.20;100.00
43818;BME280;29868;47.360;18.984;2023-04-09T02:12:03;100977.47;;;4.21;100.00
43818;BME280;29868;47.360;18.984;2023-04-09T02:14:31;100977.38;;;4.19;100.00
43818;BME280;29868;47.360;18.984;2023-04-09T02:16:58;100972.94;;;4.17;100.00
43818;BME280;29868;47.360;18.984;2023-04-09T02:19:23;100974.75;;;4.18;100.00
43818;BME280;29868;47.360;18.984;2023-04-09T02:21:49;100971.53;;;4.22;100.00
43818;BME280;29868;47.360;18.984;2023-04-09T02:24:14;100976.56;;;4.20;100.00
43818;BME280;29868;47.360;18.984;2023-04-09T02:26:40;100972.34;;;4.21;100.00
43818;BME280;29868;47.360;18.984;2023-04-09T02:29:05;100971.53;;;4.22;100.00
43818;BME280;29868;47.360;18.984;2023-04-09T02:31:31;100971.53;;;4.22;100.00
43818;BME280;29868;47.360;18.984;2023-04-09T02:33:56;100974.09;;;4.22;100.00
43818;BME280;29868;47.360;18.984;2023-04-09T02:36:21;100967.97;;;4.20;100.00
43818;BME280;29868;47.360;18.984;2023-04-09T02:38:47;100966.22;;;4.19;100.00
43818;BME280;29868;47.360;18.984;2023-04-09T02:41:12;100966.16;;;4.17;100.00
43818;BME280;29868;47.360;18.984;2023-04-09T02:43:38;100962.66;;;4.17;100.00
43818;BME280;29868;47.360;18.984;2023-04-09T02:46:03;100960.47;;;4.06;100.00
43818;BME280;29868;47.360;18.984;2023-04-09T02:48:29;100954.97;;;4.17;100.00
43818;BME280;29868;47.360;18.984;2023-04-09T02:50:54;100961.88;;;4.18;100.00
43818;BME280;29868;47.360;18.984;2023-04-09T02:53:20;100955.31;;;4.06;100.00
43818;BME280;29868;47.360;18.984;2023-04-09T02:55:48;100951.47;;;3.98;100.00
43818;BME280;29868;47.360;18.984;2023-04-09T02:58:13;100956.13;;;3.89;100.00
43818;BME280;29868;47.360;18.984;2023-04-09T03:00:39;100955.06;;;3.85;100.00
43818;BME280;29868;47.360;18.984;2023-04-09T03:03:05;100954.09;;;3.67;100.00
43818;BME280;29868;47.360;18.984;2023-04-09T03:05:30;100952.13;;;3.61;100.00
43818;BME280;29868;47.360;18.984;2023-04-09T03:07:56;100954.91;;;3.50;100.00
43818;BME280;29868;47.360;18.984;2023-04-09T03:10:21;100956.44;;;3.46;100.00
43818;BME280;29868;47.360;18.984;2023-04-09T03:12:47;100955.50;;;3.29;100.00
43818;BME280;29868;47.360;18.984;2023-04-09T03:15:12;100961.59;;;3.15;100.00
43818;BME280;29868;47.360;18.984;2023-04-09T03:17:38;100959.50;;;3.08;100.00
43818;BME280;29868;47.360;18.984;2023-04-09T03:20:05;100966.25;;;2.91;100.00
43818;BME280;29868;47.360;18.984;2023-04-09T03:22:37;100963.84;;;2.94;100.00
43818;BME280;29868;47.360;18.984;2023-04-09T03:25:03;100951.66;;;2.90;100.00
43818;BME280;29868;47.360;18.984;2023-04-09T03:27:31;100959.97;;;2.86;100.00
43818;BME280;29868;47.360;18.984;2023-04-09T03:29:56;100962.19;;;2.80;100.00
43818;BME280;29868;47.360;18.984;2023-04-09T03:32:22;100970.44;;;2.74;100.00
43818;BME280;29868;47.360;18.984;2023-04-09T03:34:47;100967.00;;;2.74;100.00
43818;BME280;29868;47.360;18.984;2023-04-09T03:37:12;100962.13;;;2.78;100.00
43818;BME280;29868;47.360;18.984;2023-04-09T03:39:38;100965.28;;;2.89;100.00
43818;BME280;29868;47.360;18.984;2023-04-09T03:42:03;100957.28;;;2.99;100.00
43818;BME280;29868;47.360;18.984;2023-04-09T03:44:29;100962.69;;;3.04;100.00
43818;BME280;29868;47.360;18.984;2023-04-09T03:46:54;100963.88;;;3.10;100.00
43818;BME280;29868;47.360;18.984;2023-04-09T03:49:20;100965.34;;;3.05;100.00
43818;BME280;29868;47.360;18.984;2023-04-09T03:51:45;100969.03;;;3.10;100.00
43818;BME280;29868;47.360;18.984;2023-04-09T03:54:10;100972.50;;;3.11;100.00
43818;BME280;29868;47.360;18.984;2023-04-09T03:56:36;100969.19;;;3.13;100.00
43818;BME280;29868;47.360;18.984;2023-04-09T03:59:01;100974.44;;;3.15;100.00
43818;BME280;29868;47.360;18.984;2023-04-09T04:01:27;100968.75;;;3.21;100.00
43818;BME280;29868;47.360;18.984;2023-04-09T04:03:52;100976.53;;;3.22;100.00
43818;BME280;29868;47.360;18.984;2023-04-09T04:06:17;100978.38;;;3.25;100.00
43818;BME280;29868;47.360;18.984;2023-04-09T04:08:43;100977.66;;;3.27;100.00
43818;BME280;29868;47.360;18.984;2023-04-09T04:11:08;100975.34;;;3.32;100.00
43818;BME280;29868;47.360;18.984;2023-04-09T04:13:34;100981.53;;;3.35;100.00
43818;BME280;29868;47.360;18.984;2023-04-09T04:15:59;100972.16;;;3.36;100.00
43818;BME280;29868;47.360;18.984;2023-04-09T04:18:25;100971.75;;;3.45;100.00
43818;BME280;29868;47.360;18.984;2023-04-09T04:20:50;100974.41;;;3.46;100.00
43818;BME280;29868;47.360;18.984;2023-04-09T04:23:16;100979.72;;;3.49;100.00
43818;BME280;29868;47.360;18.984;2023-04-09T04:25:41;100981.66;;;3.53;100.00
43818;BME280;29868;47.360;18.984;2023-04-09T04:28:07;100984.63;;;3.61;100.00
43818;BME280;29868;47.360;18.984;2023-04-09T04:30:32;100980.06;;;3.72;100.00
43818;BME280;29868;47.360;18.984;2023-04-09T04:32:58;100984.88;;;3.82;100.00
43818;BME280;29868;47.360;18.984;2023-04-09T04:35:23;100990.50;;;3.91;100.00
43818;BME280;29868;47.360;18.984;2023-04-09T04:37:49;100992.91;;;3.88;100.00
43818;BME280;29868;47.360;18.984;2023-04-09T04:40:15;100996.13;;;3.84;100.00
43818;BME280;29868;47.360;18.984;2023-04-09T04:42:41;100996.38;;;3.88;100.00
43818;BME280;29868;47.360;18.984;2023-04-09T04:45:07;100993.84;;;3.90;100.00
43818;BME280;29868;47.360;18.984;2023-04-09T04:47:32;100998.53;;;3.97;100.00
43818;BME280;29868;47.360;18.984;2023-04-09T04:49:58;100996.13;;;4.00;100.00
43818;BME280;29868;47.360;18.984;2023-04-09T04:52:23;100997.00;;;4.01;100.00
43818;BME280;29868;47.360;18.984;2023-04-09T04:54:49;100999.97;;;4.08;100.00
43818;BME280;29868;47.360;18.984;2023-04-09T04:57:14;100996.25;;;4.20;100.00
43818;BME280;29868;47.360;18.984;2023-04-09T04:59:40;101004.94;;;4.22;100.00
43818;BME280;29868;47.360;18.984;2023-04-09T05:02:06;100996.50;;;4.24;100.00
43818;BME280;29868;47.360;18.984;2023-04-09T05:04:32;100994.97;;;4.28;100.00
43818;BME280;29868;47.360;18.984;2023-04-09T05:06:57;101007.19;;;4.32;100.00
43818;BME280;29868;47.360;18.984;2023-04-09T05:09:22;101009.34;;;4.41;100.00
43818;BME280;29868;47.360;18.984;2023-04-09T05:11:48;101017.28;;;4.45;100.00
43818;BME280;29868;47.360;18.984;2023-04-09T05:14:13;101013.91;;;4.46;100.00
43818;BME280;29868;47.360;18.984;2023-04-09T05:16:39;101013.34;;;4.52;100.00
43818;BME280;29868;47.360;18.984;2023-04-09T05:19:04;101009.63;;;4.63;100.00
43818;BME280;29868;47.360;18.984;2023-04-09T05:21:30;101008.97;;;4.51;100.00
43818;BME280;29868;47.360;18.984;2023-04-09T05:23:56;101015.03;;;4.51;100.00
43818;BME280;29868;47.360;18.984;2023-04-09T05:26:21;101012.91;;;4.60;100.00
43818;BME280;29868;47.360;18.984;2023-04-09T05:28:47;101012.56;;;4.71;100.00
43818;BME280;29868;47.360;18.984;2023-04-09T05:31:12;101019.53;;;4.73;100.00
43818;BME280;29868;47.360;18.984;2023-04-09T05:33:40;101019.28;;;4.85;100.00
43818;BME280;29868;47.360;18.984;2023-04-09T05:36:06;101022.59;;;4.82;100.00
43818;BME280;29868;47.360;18.984;2023-04-09T05:38:31;101019.72;;;4.94;100.00
43818;BME280;29868;47.360;18.984;2023-04-09T05:40:57;101024.13;;;4.79;100.00
43818;BME280;29868;47.360;18.984;2023-04-09T05:43:22;101020.97;;;5.02;100.00
43818;BME280;29868;47.360;18.984;2023-04-09T05:45:48;101029.13;;;4.94;100.00
43818;BME280;29868;47.360;18.984;2023-04-09T05:48:13;101030.47;;;5.03;100.00
43818;BME280;29868;47.360;18.984;2023-04-09T05:50:39;101026.72;;;5.15;100.00
43818;BME280;29868;47.360;18.984;2023-04-09T05:53:04;101027.31;;;5.27;100.00
43818;BME280;29868;47.360;18.984;2023-04-09T05:55:30;101026.66;;;5.31;100.00
43818;BME280;29868;47.360;18.984;2023-04-09T05:57:57;101025.69;;;5.29;100.00
43818;BME280;29868;47.360;18.984;2023-04-09T06:00:22;101044.16;;;5.38;100.00
43818;BME280;29868;47.360;18.984;2023-04-09T06:02:48;101040.78;;;5.39;100.00
43818;BME280;29868;47.360;18.984;2023-04-09T06:05:13;101039.28;;;5.44;100.00
43818;BME280;29868;47.360;18.984;2023-04-09T06:07:39;101040.00;;;5.59;100.00
43818;BME280;29868;47.360;18.984;2023-04-09T06:10:05;101043.13;;;5.72;100.00
43818;BME280;29868;47.360;18.984;2023-04-09T06:12:33;101038.66;;;5.68;100.00
43818;BME280;29868;47.360;18.984;2023-04-09T06:14:59;101042.00;;;5.65;100.00
43818;BME280;29868;47.360;18.984;2023-04-09T06:17:24;101051.31;;;5.81;100.00
43818;BME280;29868;47.360;18.984;2023-04-09T06:19:50;101045.84;;;5.75;100.00
43818;BME280;29868;47.360;18.984;2023-04-09T06:22:15;101049.75;;;5.84;100.00
43818;BME280;29868;47.360;18.984;2023-04-09T06:24:41;101042.66;;;5.98;100.00
43818;BME280;29868;47.360;18.984;2023-04-09T06:27:06;101048.50;;;6.14;100.00
43818;BME280;29868;47.360;18.984;2023-04-09T06:29:32;101045.22;;;5.98;100.00
43818;BME280;29868;47.360;18.984;2023-04-09T06:31:57;101048.16;;;6.06;100.00
43818;BME280;29868;47.360;18.984;2023-04-09T06:34:23;101049.84;;;6.25;100.00
43818;BME280;29868;47.360;18.984;2023-04-09T06:36:48;101046.53;;;6.27;100.00
43818;BME280;29868;47.360;18.984;2023-04-09T06:39:14;101048.09;;;6.24;100.00
43818;BME280;29868;47.360;18.984;2023-04-09T06:41:39;101052.19;;;6.19;100.00
43818;BME280;29868;47.360;18.984;2023-04-09T06:44:05;101049.66;;;6.40;100.00
43818;BME280;29868;47.360;18.984;2023-04-09T06:46:30;101042.44;;;6.32;100.00
43818;BME280;29868;47.360;18.984;2023-04-09T06:48:56;101047.28;;;6.44;100.00
43818;BME280;29868;47.360;18.984;2023-04-09T06:51:21;101055.75;;;6.61;100.00
43818;BME280;29868;47.360;18.984;2023-04-09T06:53:47;101057.25;;;6.77;100.00
43818;BME280;29868;47.360;18.984;2023-04-09T06:56:12;101054.56;;;6.95;100.00
43818;BME280;29868;47.360;18.984;2023-04-09T06:58:38;101054.38;;;7.11;100.00
43818;BME280;29868;47.360;18.984;2023-04-09T07:01:03;101057.78;;;7.10;100.00
43818;BME280;29868;47.360;18.984;2023-04-09T07:03:30;101059.22;;;7.03;100.00
43818;BME280;29868;47.360;18.984;2023-04-09T07:05:55;101062.56;;;7.22;100.00
43818;BME280;29868;47.360;18.984;2023-04-09T07:08:22;101063.31;;;7.19;100.00
43818;BME280;29868;47.360;18.984;2023-04-09T07:10:47;101069.75;;;7.29;100.00
43818;BME280;29868;47.360;18.984;2023-04-09T07:13:13;101074.44;;;7.17;100.00
43818;BME280;29868;47.360;18.984;2023-04-09T07:15:38;101074.25;;;7.35;100.00
43818;BME280;29868;47.360;18.984;2023-04-09T07:18:04;101077.81;;;7.37;100.00
43818;BME280;29868;47.360;18.984;2023-04-09T07:20:30;101081.81;;;7.51;100.00
43818;BME280;29868;47.360;18.984;2023-04-09T07:22:55;101077.13;;;7.63;100.00
43818;BME280;29868;47.360;18.984;2023-04-09T07:25:21;101074.78;;;7.47;100.00
43818;BME280;29868;47.360;18.984;2023-04-09T07:27:47;101081.13;;;8.00;100.00
43818;BME280;29868;47.360;18.984;2023-04-09T07:30:12;101079.41;;;8.00;100.00
43818;BME280;29868;47.360;18.984;2023-04-09T07:32:37;101085.28;;;8.19;100.00
43818;BME280;29868;47.360;18.984;2023-04-09T07:35:06;101086.94;;;7.94;100.00
43818;BME280;29868;47.360;18.984;2023-04-09T07:37:34;101086.88;;;8.38;100.00
43818;BME280;29868;47.360;18.984;2023-04-09T07:40:00;101089.00;;;8.49;100.00
43818;BME280;29868;47.360;18.984;2023-04-09T07:42:28;101090.38;;;8.89;100.00
43818;BME280;29868;47.360;18.984;2023-04-09T07:44:53;101082.69;;;8.67;100.00
43818;BME280;29868;47.360;18.984;2023-04-09T07:47:19;101090.09;;;9.06;100.00
43818;BME280;29868;47.360;18.984;2023-04-09T07:49:45;101089.78;;;9.23;100.00
43818;BME280;29868;47.360;18.984;2023-04-09T07:52:11;101098.16;;;9.69;100.00
43818;BME280;29868;47.360;18.984;2023-04-09T07:54:36;101089.09;;;9.83;100.00
43818;BME280;29868;47.360;18.984;2023-04-09T07:57:02;101099.69;;;10.19;100.00
43818;BME280;29868;47.360;18.984;2023-04-09T07:59:27;101095.69;;;8.92;100.00
43818;BME280;29868;47.360;18.984;2023-04-09T08:01:53;101097.34;;;9.70;100.00
43818;BME280;29868;47.360;18.984;2023-04-09T08:04:19;101095.81;;;10.05;100.00
43818;BME280;29868;47.360;18.984;2023-04-09T08:06:45;101093.41;;;10.73;100.00
43818;BME280;29868;47.360;18.984;2023-04-09T08:09:14;101094.00;;;10.31;100.00
43818;BME280;29868;47.360;18.984;2023-04-09T08:11:40;101093.75;;;10.23;100.00
43818;BME280;29868;47.360;18.984;2023-04-09T08:14:05;101096.97;;;9.86;100.00
43818;BME280;29868;47.360;18.984;2023-04-09T08:16:31;101099.72;;;10.21;100.00
43818;BME280;29868;47.360;18.984;2023-04-09T08:18:56;101101.38;;;10.19;100.00
43818;BME280;29868;47.360;18.984;2023-04-09T08:21:22;101102.31;;;10.21;100.00
43818;BME280;29868;47.360;18.984;2023-04-09T08:23:47;101098.81;;;10.49;100.00
43818;BME280;29868;47.360;18.984;2023-04-09T08:26:13;101103.72;;;10.70;100.00
43818;BME280;29868;47.360;18.984;2023-04-09T08:28:38;101108.69;;;10.61;100.00
43818;BME280;29868;47.360;18.984;2023-04-09T08:31:04;101110.25;;;10.56;100.00
43818;BME280;29868;47.360;18.984;2023-04-09T08:33:29;101109.56;;;10.94;100.00
43818;BME280;29868;47.360;18.984;2023-04-09T08:35:55;101111.41;;;10.65;100.00
43818;BME280;29868;47.360;18.984;2023-04-09T08:38:20;101109.03;;;11.42;100.00
43818;BME280;29868;47.360;18.984;2023-04-09T08:40:46;101118.19;;;11.63;100.00
43818;BME280;29868;47.360;18.984;2023-04-09T08:43:14;101118.84;;;11.54;100.00
43818;BME280;29868;47.360;18.984;2023-04-09T08:45:41;101125.00;;;11.58;100.00
43818;BME280;29868;47.360;18.984;2023-04-09T08:48:08;101124.78;;;11.83;100.00
43818;BME280;29868;47.360;18.984;2023-04-09T08:50:34;101127.59;;;11.56;100.00
43818;BME280;29868;47.360;18.984;2023-04-09T08:53:05;101124.81;;;11.49;100.00
43818;BME280;29868;47.360;18.984;2023-04-09T08:55:32;101126.66;;;11.19;100.00
43818;BME280;29868;47.360;18.984;2023-04-09T08:58:05;101140.75;;;10.94;100.00
43818;BME280;29868;47.360;18.984;2023-04-09T09:00:35;101140.03;;;11.00;100.00
43818;BME280;29868;47.360;18.984;2023-04-09T09:03:10;101141.09;;;11.41;100.00
43818;BME280;29868;47.360;18.984;2023-04-09T09:05:44;101140.22;;;10.75;100.00
43818;BME280;29868;47.360;18.984;2023-04-09T09:08:24;101142.28;;;11.19;100.00
43818;BME280;29868;47.360;18.984;2023-04-09T09:10:50;101133.22;;;11.38;100.00
43818;BME280;29868;47.360;18.984;2023-04-09T09:15:44;101140.41;;;11.49;100.00
43818;BME280;29868;47.360;18.984;2023-04-09T09:18:12;101139.22;;;11.36;100.00
43818;BME280;29868;47.360;18.984;2023-04-09T09:20:37;101140.13;;;11.38;100.00
43818;BME280;29868;47.360;18.984;2023-04-09T09:23:03;101141.75;;;11.33;100.00
43818;BME280;29868;47.360;18.984;2023-04-09T09:25:29;101136.97;;;11.51;100.00
43818;BME280;29868;47.360;18.984;2023-04-09T09:28:09;101140.63;;;11.58;100.00
43818;BME280;29868;47.360;18.984;2023-04-09T09:30:35;101139.75;;;11.93;100.00
43818;BME280;29868;47.360;18.984;2023-04-09T09:33:11;101133.81;;;12.01;100.00
43818;BME280;29868;47.360;18.984;2023-04-09T09:35:47;101134.78;;;12.04;98.26
43818;BME280;29868;47.360;18.984;2023-04-09T09:38:13;101137.88;;;11.86;97.52
43818;BME280;29868;47.360;18.984;2023-04-09T09:40:40;101132.47;;;12.16;93.54
43818;BME280;29868;47.360;18.984;2023-04-09T09:43:05;101130.88;;;11.85;88.43
43818;BME280;29868;47.360;18.984;2023-04-09T09:45:31;101135.56;;;12.00;88.98
43818;BME280;29868;47.360;18.984;2023-04-09T09:47:57;101129.97;;;11.83;87.79
43818;BME280;29868;47.360;18.984;2023-04-09T09:50:23;101127.50;;;12.29;86.02
43818;BME280;29868;47.360;18.984;2023-04-09T09:52:52;101125.75;;;12.28;81.92
43818;BME280;29868;47.360;18.984;2023-04-09T09:55:20;101124.97;;;12.33;80.72
43818;BME280;29868;47.360;18.984;2023-04-09T09:57:48;101122.59;;;12.44;74.98
43818;BME280;29868;47.360;18.984;2023-04-09T10:00:15;101116.81;;;12.59;76.80
43818;BME280;29868;47.360;18.984;2023-04-09T10:02:54;101124.81;;;12.68;81.42
43818;BME280;29868;47.360;18.984;2023-04-09T10:05:21;101128.38;;;12.29;74.03
43818;BME280;29868;47.360;18.984;2023-04-09T10:07:53;101130.97;;;12.28;80.09
43818;BME280;29868;47.360;18.984;2023-04-09T10:10:22;101123.78;;;12.60;83.20
43818;BME280;29868;47.360;18.984;2023-04-09T10:12:48;101127.78;;;12.02;81.61
43818;BME280;29868;47.360;18.984;2023-04-09T10:15:14;101124.50;;;11.74;83.95
43818;BME280;29868;47.360;18.984;2023-04-09T10:17:40;101127.44;;;12.27;88.00
43818;BME280;29868;47.360;18.984;2023-04-09T10:20:26;101126.63;;;12.28;83.80
43818;BME280;29868;47.360;18.984;2023-04-09T10:22:54;101126.69;;;11.90;81.40
43818;BME280;29868;47.360;18.984;2023-04-09T10:25:20;101131.78;;;11.86;82.54
43818;BME280;29868;47.360;18.984;2023-04-09T10:27:58;101121.41;;;12.28;85.39
43818;BME280;29868;47.360;18.984;2023-04-09T10:30:34;101120.41;;;12.22;81.72
43818;BME280;29868;47.360;18.984;2023-04-09T10:33:14;101119.47;;;11.80;87.90
43818;BME280;29868;47.360;18.984;2023-04-09T10:35:41;101118.25;;;11.66;83.19
43818;BME280;29868;47.360;18.984;2023-04-09T10:38:13;101120.53;;;11.88;83.32
43818;BME280;29868;47.360;18.984;2023-04-09T10:40:40;101126.56;;;12.25;83.38
43818;BME280;29868;47.360;18.984;2023-04-09T10:43:08;101125.44;;;12.12;80.51
43818;BME280;29868;47.360;18.984;2023-04-09T10:45:40;101123.22;;;12.32;82.92
43818;BME280;29868;47.360;18.984;2023-04-09T10:48:10;101117.63;;;12.56;81.99
43818;BME280;29868;47.360;18.984;2023-04-09T10:50:37;101115.72;;;12.48;78.78
43818;BME280;29868;47.360;18.984;2023-04-09T10:53:03;101121.78;;;12.92;77.63
43818;BME280;29868;47.360;18.984;2023-04-09T10:55:34;101120.47;;;13.15;76.63
43818;BME280;29868;47.360;18.984;2023-04-09T10:58:02;101116.75;;;13.53;76.16
43818;BME280;29868;47.360;18.984;2023-04-09T11:00:27;101121.56;;;13.28;72.86
43818;BME280;29868;47.360;18.984;2023-04-09T11:03:05;101122.09;;;12.62;77.19
43818;BME280;29868;47.360;18.984;2023-04-09T11:05:36;101119.19;;;12.94;79.21
43818;BME280;29868;47.360;18.984;2023-04-09T11:08:07;101116.13;;;13.68;77.70
43818;BME280;29868;47.360;18.984;2023-04-09T11:10:43;101118.81;;;13.72;72.46
43818;BME280;29868;47.360;18.984;2023-04-09T11:13:13;101113.88;;;13.94;74.37
43818;BME280;29868;47.360;18.984;2023-04-09T11:15:39;101117.38;;;13.96;67.88
43818;BME280;29868;47.360;18.984;2023-04-09T11:18:05;101114.22;;;14.18;71.42
43818;BME280;29868;47.360;18.984;2023-04-09T11:20:38;101107.47;;;14.39;68.57
43818;BME280;29868;47.360;18.984;2023-04-09T11:23:04;101106.28;;;14.12;67.39
43818;BME280;29868;47.360;18.984;2023-04-09T11:25:32;101111.19;;;13.89;66.72
43818;BME280;29868;47.360;18.984;2023-04-09T11:27:58;101110.34;;;13.32;69.51
43818;BME280;29868;47.360;18.984;2023-04-09T11:30:24;101113.41;;;13.10;69.64
43818;BME280;29868;47.360;18.984;2023-04-09T11:32:50;101105.72;;;12.69;74.27
43818;BME280;29868;47.360;18.984;2023-04-09T11:35:17;101108.72;;;12.90;73.97
43818;BME280;29868;47.360;18.984;2023-04-09T11:37:44;101106.34;;;12.57;71.96
43818;BME280;29868;47.360;18.984;2023-04-09T11:40:18;101102.63;;;12.91;76.81
43818;BME280;29868;47.360;18.984;2023-04-09T11:42:45;101104.09;;;12.76;78.46
43818;BME280;29868;47.360;18.984;2023-04-09T11:45:11;101108.91;;;13.00;76.82
43818;BME280;29868;47.360;18.984;2023-04-09T11:47:40;101105.66;;;12.66;77.81
43818;BME280;29868;47.360;18.984;2023-04-09T11:50:11;101109.91;;;12.18;75.70
43818;BME280;29868;47.360;18.984;2023-04-09T11:52:37;101102.66;;;12.04;78.01
43818;BME280;29868;47.360;18.984;2023-04-09T11:55:04;101102.88;;;12.13;76.32
43818;BME280;29868;47.360;18.984;2023-04-09T11:57:43;101105.47;;;12.13;76.19
43818;BME280;29868;47.360;18.984;2023-04-09T12:00:18;101109.50;;;11.99;78.50
43818;BME280;29868;47.360;18.984;2023-04-09T12:02:47;101106.34;;;12.13;78.82
43818;BME280;29868;47.360;18.984;2023-04-09T12:05:24;101113.22;;;12.10;78.62
43818;BME280;29868;47.360;18.984;2023-04-09T12:07:50;101109.66;;;11.70;81.21
43818;BME280;29868;47.360;18.984;2023-04-09T12:10:16;101109.41;;;11.58;80.39
43818;BME280;29868;47.360;18.984;2023-04-09T12:12:43;101108.00;;;11.36;82.21
43818;BME280;29868;47.360;18.984;2023-04-09T12:15:24;101099.41;;;11.38;85.08
43818;BME280;29868;47.360;18.984;2023-04-09T12:17:53;101102.84;;;11.37;84.78
43818;BME280;29868;47.360;18.984;2023-04-09T12:20:32;101106.81;;;11.23;84.85
43818;BME280;29868;47.360;18.984;2023-04-09T12:23:00;101105.03;;;11.20;84.89
43818;BME280;29868;47.360;18.984;2023-04-09T12:25:27;101109.22;;;11.14;83.57
43818;BME280;29868;47.360;18.984;2023-04-09T12:27:54;101104.44;;;11.32;86.47
43818;BME280;29868;47.360;18.984;2023-04-09T12:30:20;101105.06;;;11.22;84.90
43818;BME280;29868;47.360;18.984;2023-04-09T12:32:46;101102.66;;;11.30;83.10
43818;BME280;29868;47.360;18.984;2023-04-09T12:35:12;101102.38;;;11.54;85.33
43818;BME280;29868;47.360;18.984;2023-04-09T12:37:38;101104.88;;;11.51;83.92
43818;BME280;29868;47.360;18.984;2023-04-09T12:40:04;101103.69;;;11.74;83.32
43818;BME280;29868;47.360;18.984;2023-04-09T12:42:30;101098.22;;;12.00;84.20
43818;BME280;29868;47.360;18.984;2023-04-09T12:44:55;101101.41;;;11.86;76.88
43818;BME280;29868;47.360;18.984;2023-04-09T12:47:24;101093.97;;;12.03;77.00